Skip to main content

NOAA/GLERL Met Station at Muskegon, MI

Previous 3 Hours (2 minute increments)
See also Previous 5 Days (top of hour)
Jump down to Data
Switch to [English][Metric]
Zoom: Click and drag, Pan: shift-click and drag, Unzoom: double-click, Unzoom All






See also 1-day windrose plot


NOAA/GLERL Met Station at Muskegon, MI

Previous 3 Hours (2 minute increments)
See also Previous 5 Days (top of hour only)
Jump up to Graphs
Switch to [English][Metric]
                  Wind  Wind  Wind   Air   Dew   Rel     Sta   PAR
                   Spd   Gst   Dir  Temp    Pt   Hum    Pres uE/m2/
YYYY-MM-DD   EDT   kts   kts   deg     F     F     %   in Hg   sec
2018-06-22 03:10  11.9  16.1    92  62.4  39.5  42.4   29.22     2
2018-06-22 03:08  11.3  15.2    96  62.4  39.5  42.4   29.22     2
2018-06-22 03:06  10.7  15.7    88  62.4  39.6  42.5   29.22     2
2018-06-22 03:04   8.9  13.2    96  62.4  39.6  42.6   29.22     2
2018-06-22 03:02  10.5  13.6    97  62.4  39.2  42.0   29.22     2
2018-06-22 03:00  11.1  14.0    96  62.4  38.9  41.5   29.22     2
2018-06-22 02:58  12.6  17.1    93  62.6  39.3  41.8   29.22     2
2018-06-22 02:56  12.1  16.7    99  62.6  39.4  42.0   29.22     2
2018-06-22 02:54   8.4  15.7    91  62.6  39.7  42.4   29.22     2
2018-06-22 02:52  10.1  18.3    93  62.6  39.5  42.1   29.22     2
2018-06-22 02:50  13.2  17.5    94  62.6  39.2  41.6   29.22     2
2018-06-22 02:48  10.7  15.2    95  62.8  39.2  41.4   29.22     2
2018-06-22 02:46  11.7  15.4    97  62.8  39.0  41.1   29.22     2
2018-06-22 02:44  12.8  17.3    91  62.8  39.6  42.1   29.22     2
2018-06-22 02:42  11.1  15.4    98  62.8  38.8  40.7   29.22     2
2018-06-22 02:40  14.0  17.5    99  62.8  38.7  40.6   29.22     2
2018-06-22 02:38  10.7  15.0    94  63.0  39.4  41.5   29.22     2
2018-06-22 02:36   9.7  13.8    98  63.0  39.3  41.2   29.22     2
2018-06-22 02:34   8.7  14.4    91  63.0  39.4  41.5   29.22     2
2018-06-22 02:32  10.3  15.0    92  63.0  39.3  41.2   29.22     2
2018-06-22 02:30  12.6  16.5   103  63.1  39.6  41.5   29.22     2
2018-06-22 02:28   8.0  12.6    97  63.1  39.5  41.3   29.22     2
2018-06-22 02:26   9.3  13.0    97  63.1  39.4  41.2   29.22     2
2018-06-22 02:24  10.3  14.0    97  63.1  39.2  40.8   29.22     2
2018-06-22 02:22   9.7  14.6    96  63.1  39.4  41.2   29.22     2
2018-06-22 02:20   9.3  15.6    96  63.3  39.6  41.2   29.22     2
2018-06-22 02:18  10.3  16.9    98  63.3  39.1  40.5   29.22     2
2018-06-22 02:16  11.1  15.6    98  63.3  38.6  39.7   29.22     2
2018-06-22 02:14  11.9  17.3   100  63.3  39.4  40.9   29.22     2
2018-06-22 02:12  12.6  17.1   105  63.3  39.0  40.3   29.22     2
2018-06-22 02:10  11.9  17.5    95  63.3  38.9  40.1   29.22     2
2018-06-22 02:08  15.6  19.4    96  63.5  38.8  39.7   29.22     2
2018-06-22 02:06  10.5  14.6    96  63.5  38.9  39.9   29.22     2
2018-06-22 02:04  13.4  17.9   102  63.7  39.1  39.9   29.22     2
2018-06-22 02:02   9.9  17.7    99  63.7  39.8  41.0   29.23     2
2018-06-22 02:00   8.7  14.2   100  63.7  39.5  40.6   29.23     2
2018-06-22 01:58  11.5  16.1   102  63.7  38.9  39.6   29.23     2
2018-06-22 01:56  12.2  16.9    99  63.7  38.4  38.9   29.23     2
2018-06-22 01:54  12.8  17.5   101  63.9  38.7  39.0   29.23     2
2018-06-22 01:52  11.9  16.1   101  63.9  38.4  38.6   29.23     2
2018-06-22 01:50  13.2  18.1    94  63.9  38.9  39.4   29.23     2
2018-06-22 01:48  11.9  17.7   100  64.0  38.2  38.1   29.23     2
2018-06-22 01:46  13.6  17.9   103  64.0  38.8  38.9   29.23     2
2018-06-22 01:44  12.4  17.7   102  64.0  38.9  39.1   29.23     2
2018-06-22 01:42  10.5  16.5   101  64.0  38.7  38.8   29.23     2
2018-06-22 01:40  11.1  16.1   102  64.2  39.8  40.2   29.23     2
2018-06-22 01:38   9.5  13.8   105  64.2  38.9  38.8   29.23     2
2018-06-22 01:36  13.6  19.8    98  64.2  39.0  39.0   29.23     2
2018-06-22 01:34  12.2  16.7   100  64.2  39.8  40.3   29.23     2
2018-06-22 01:32  10.1  16.7    97  64.4  40.1  40.5   29.23     2
2018-06-22 01:30  12.2  17.7    98  64.4  40.4  41.0   29.23     2
2018-06-22 01:28  11.1  14.4   108  64.4  40.1  40.4   29.23     2
2018-06-22 01:26   9.5  15.0   101  64.4  39.5  39.5   29.23     2
2018-06-22 01:24  10.9  16.5    97  64.6  39.3  39.0   29.23     2
2018-06-22 01:22  13.8  16.9    97  64.6  39.4  39.1   29.23     2
2018-06-22 01:20  15.0  18.3   100  64.6  40.0  40.1   29.23     2
2018-06-22 01:18  11.7  15.7    99  64.8  40.8  41.0   29.23     2
2018-06-22 01:16  11.5  15.4    96  64.8  40.7  40.9   29.23     2
2018-06-22 01:14  11.9  16.3   103  64.8  40.6  40.8   29.23     2
2018-06-22 01:12  11.3  16.9   105  64.8  40.8  41.0   29.24     2
2018-06-22 01:10  11.9  16.3   100  64.9  40.4  40.2   29.23     2
2018-06-22 01:08  12.4  17.1    95  64.9  40.1  39.7   29.23     2
2018-06-22 01:06  13.6  18.1    99  65.1  40.7  40.4   29.23     2
2018-06-22 01:04  10.1  16.9   103  65.1  40.8  40.5   29.23     2
2018-06-22 01:02  11.3  16.3   103  65.3  41.0  40.6   29.23     2
2018-06-22 01:00  11.7  16.1   105  65.3  41.1  40.7   29.23     2
2018-06-22 00:58  12.2  18.3    97  65.3  41.6  41.6   29.23     2
2018-06-22 00:56  11.9  17.3    99  65.5  41.4  41.0   29.23     2
2018-06-22 00:54  10.5  15.7   101  65.5  42.3  42.4   29.23     2
2018-06-22 00:52  11.7  16.9   107  65.5  41.1  40.5   29.23     2
2018-06-22 00:50  13.2  18.5   104  65.7  41.3  40.5   29.23     2
2018-06-22 00:48  15.2  18.5   104  65.7  41.6  41.0   29.23     2
2018-06-22 00:46  12.6  19.4   102  65.8  41.2  40.2   29.23     2
2018-06-22 00:44  14.2  21.0   101  65.8  41.7  40.9   29.23     2
2018-06-22 00:42  10.5  16.1   101  65.8  42.1  41.5   29.23     2
2018-06-22 00:40  12.4  19.2   103  66.0  42.3  41.6   29.23     2
2018-06-22 00:38  11.9  16.5   103  66.0  41.7  40.7   29.23     2
2018-06-22 00:36  16.3  22.0   101  66.0  42.1  41.3   29.23     2
2018-06-22 00:34  14.2  19.4    97  66.0  41.9  40.9   29.23     2
2018-06-22 00:32  13.8  19.2   102  66.2  42.6  41.8   29.23     2
2018-06-22 00:30  13.2  19.2   102  66.2  43.0  42.5   29.22     2
2018-06-22 00:28  12.1  15.9    97  66.2  43.4  43.1   29.22     2
2018-06-22 00:26  14.2  20.4   101  66.4  42.9  42.0   29.22     2
2018-06-22 00:24  15.4  21.0   102  66.4  43.1  42.4   29.22     2
2018-06-22 00:22  14.8  20.8    94  66.4  43.7  43.4   29.22     2
2018-06-22 00:20  11.7  20.4   100  66.6  44.2  43.9   29.22     2
2018-06-22 00:18  15.9  20.8   100  66.6  44.2  44.0   29.22     2
2018-06-22 00:16  11.5  17.5   102  66.6  44.4  44.2   29.22     2
2018-06-22 00:14  17.5  22.7    97  66.7  44.6  44.4   29.22     2
2018-06-22 00:12  13.4  20.4    99  66.7  45.6  46.1   29.22     2
2018-06-22 00:10  13.0  18.1    97  66.7  46.0  46.7   29.22     2